sensor_id;sensor_type;location;lat;lon;timestamp;P1;durP1;ratioP1;P2;durP2;ratioP2
11665;SDS011;5889;51.350;6.708;2023-06-26T00:01:28;8.45;;;7.55;;
11665;SDS011;5889;51.350;6.708;2023-06-26T00:03:56;10.00;;;7.45;;
11665;SDS011;5889;51.350;6.708;2023-06-26T00:06:25;8.20;;;7.40;;
11665;SDS011;5889;51.350;6.708;2023-06-26T00:08:52;8.88;;;7.28;;
11665;SDS011;5889;51.350;6.708;2023-06-26T00:11:20;9.60;;;7.53;;
11665;SDS011;5889;51.350;6.708;2023-06-26T00:13:47;8.52;;;7.65;;
11665;SDS011;5889;51.350;6.708;2023-06-26T00:16:14;7.72;;;6.82;;
11665;SDS011;5889;51.350;6.708;2023-06-26T00:18:41;8.10;;;7.28;;
11665;SDS011;5889;51.350;6.708;2023-06-26T00:21:08;10.60;;;7.68;;
11665;SDS011;5889;51.350;6.708;2023-06-26T00:23:38;8.40;;;7.47;;
11665;SDS011;5889;51.350;6.708;2023-06-26T00:26:05;8.88;;;7.00;;
11665;SDS011;5889;51.350;6.708;2023-06-26T00:28:35;8.32;;;7.15;;
11665;SDS011;5889;51.350;6.708;2023-06-26T00:31:02;8.85;;;7.50;;
11665;SDS011;5889;51.350;6.708;2023-06-26T00:33:29;10.23;;;8.00;;
11665;SDS011;5889;51.350;6.708;2023-06-26T00:35:56;10.02;;;7.30;;
11665;SDS011;5889;51.350;6.708;2023-06-26T00:38:23;8.98;;;7.30;;
11665;SDS011;5889;51.350;6.708;2023-06-26T00:40:51;11.88;;;7.97;;
11665;SDS011;5889;51.350;6.708;2023-06-26T00:43:19;10.70;;;7.63;;
11665;SDS011;5889;51.350;6.708;2023-06-26T00:45:47;10.93;;;7.97;;
11665;SDS011;5889;51.350;6.708;2023-06-26T00:48:14;11.07;;;7.90;;
11665;SDS011;5889;51.350;6.708;2023-06-26T00:50:41;9.52;;;7.35;;
11665;SDS011;5889;51.350;6.708;2023-06-26T00:53:09;10.60;;;7.60;;
11665;SDS011;5889;51.350;6.708;2023-06-26T00:55:37;8.07;;;7.28;;
11665;SDS011;5889;51.350;6.708;2023-06-26T00:58:05;8.52;;;7.47;;
11665;SDS011;5889;51.350;6.708;2023-06-26T01:00:32;11.45;;;8.00;;
11665;SDS011;5889;51.350;6.708;2023-06-26T01:03:00;8.25;;;7.38;;
11665;SDS011;5889;51.350;6.708;2023-06-26T01:05:27;8.68;;;7.25;;
11665;SDS011;5889;51.350;6.708;2023-06-26T01:07:55;9.40;;;8.00;;
11665;SDS011;5889;51.350;6.708;2023-06-26T01:10:24;8.95;;;7.32;;
11665;SDS011;5889;51.350;6.708;2023-06-26T01:12:54;9.38;;;7.85;;
11665;SDS011;5889;51.350;6.708;2023-06-26T01:15:22;9.05;;;7.55;;
11665;SDS011;5889;51.350;6.708;2023-06-26T01:17:49;9.45;;;7.82;;
11665;SDS011;5889;51.350;6.708;2023-06-26T01:20:18;10.93;;;8.32;;
11665;SDS011;5889;51.350;6.708;2023-06-26T01:22:47;9.50;;;7.68;;
11665;SDS011;5889;51.350;6.708;2023-06-26T01:25:24;11.40;;;8.50;;
11665;SDS011;5889;51.350;6.708;2023-06-26T01:28:05;8.95;;;8.05;;
11665;SDS011;5889;51.350;6.708;2023-06-26T01:30:33;10.13;;;8.32;;
11665;SDS011;5889;51.350;6.708;2023-06-26T01:33:02;9.18;;;7.55;;
11665;SDS011;5889;51.350;6.708;2023-06-26T01:35:30;10.93;;;8.23;;
11665;SDS011;5889;51.350;6.708;2023-06-26T01:38:10;10.45;;;8.23;;
11665;SDS011;5889;51.350;6.708;2023-06-26T01:40:39;10.52;;;8.13;;
11665;SDS011;5889;51.350;6.708;2023-06-26T01:43:09;10.13;;;8.38;;
11665;SDS011;5889;51.350;6.708;2023-06-26T01:45:41;9.60;;;8.20;;
11665;SDS011;5889;51.350;6.708;2023-06-26T01:48:10;13.07;;;8.40;;
11665;SDS011;5889;51.350;6.708;2023-06-26T01:50:38;10.73;;;8.73;;
11665;SDS011;5889;51.350;6.708;2023-06-26T01:53:08;11.50;;;8.05;;
11665;SDS011;5889;51.350;6.708;2023-06-26T01:55:40;9.48;;;8.50;;
11665;SDS011;5889;51.350;6.708;2023-06-26T01:58:12;14.13;;;8.65;;
11665;SDS011;5889;51.350;6.708;2023-06-26T02:00:40;11.43;;;9.10;;
11665;SDS011;5889;51.350;6.708;2023-06-26T02:03:07;11.48;;;8.77;;
11665;SDS011;5889;51.350;6.708;2023-06-26T02:05:34;9.20;;;7.68;;
11665;SDS011;5889;51.350;6.708;2023-06-26T02:08:01;12.80;;;9.15;;
11665;SDS011;5889;51.350;6.708;2023-06-26T02:10:28;9.20;;;8.23;;
11665;SDS011;5889;51.350;6.708;2023-06-26T02:12:55;10.20;;;8.45;;
11665;SDS011;5889;51.350;6.708;2023-06-26T02:15:24;9.02;;;7.47;;
11665;SDS011;5889;51.350;6.708;2023-06-26T02:17:51;11.43;;;8.95;;
11665;SDS011;5889;51.350;6.708;2023-06-26T02:20:18;9.35;;;7.82;;
11665;SDS011;5889;51.350;6.708;2023-06-26T02:22:45;8.20;;;6.95;;
11665;SDS011;5889;51.350;6.708;2023-06-26T02:25:12;10.35;;;8.07;;
11665;SDS011;5889;51.350;6.708;2023-06-26T02:27:39;10.07;;;8.65;;
11665;SDS011;5889;51.350;6.708;2023-06-26T02:30:08;12.20;;;8.23;;
11665;SDS011;5889;51.350;6.708;2023-06-26T02:32:36;10.07;;;8.43;;
11665;SDS011;5889;51.350;6.708;2023-06-26T02:35:04;12.68;;;8.98;;
11665;SDS011;5889;51.350;6.708;2023-06-26T02:37:31;13.45;;;9.02;;
11665;SDS011;5889;51.350;6.708;2023-06-26T02:39:58;9.63;;;7.22;;
11665;SDS011;5889;51.350;6.708;2023-06-26T02:42:25;10.88;;;8.15;;
11665;SDS011;5889;51.350;6.708;2023-06-26T02:44:52;10.50;;;8.18;;
11665;SDS011;5889;51.350;6.708;2023-06-26T02:47:19;10.98;;;8.02;;
11665;SDS011;5889;51.350;6.708;2023-06-26T02:49:48;9.18;;;7.53;;
11665;SDS011;5889;51.350;6.708;2023-06-26T02:52:15;10.50;;;7.10;;
11665;SDS011;5889;51.350;6.708;2023-06-26T02:54:42;11.10;;;7.50;;
11665;SDS011;5889;51.350;6.708;2023-06-26T02:57:09;14.65;;;7.80;;
11665;SDS011;5889;51.350;6.708;2023-06-26T02:59:36;15.30;;;9.07;;
11665;SDS011;5889;51.350;6.708;2023-06-26T03:02:04;13.48;;;8.18;;
11665;SDS011;5889;51.350;6.708;2023-06-26T03:04:31;9.15;;;8.13;;
11665;SDS011;5889;51.350;6.708;2023-06-26T03:07:02;10.95;;;8.50;;
11665;SDS011;5889;51.350;6.708;2023-06-26T03:09:30;13.60;;;7.68;;
11665;SDS011;5889;51.350;6.708;2023-06-26T03:11:57;10.75;;;8.27;;
11665;SDS011;5889;51.350;6.708;2023-06-26T03:14:23;9.93;;;7.43;;
11665;SDS011;5889;51.350;6.708;2023-06-26T03:16:52;12.18;;;8.10;;
11665;SDS011;5889;51.350;6.708;2023-06-26T03:19:22;11.77;;;8.13;;
11665;SDS011;5889;51.350;6.708;2023-06-26T03:21:49;8.60;;;7.63;;
11665;SDS011;5889;51.350;6.708;2023-06-26T03:24:18;11.82;;;7.90;;
11665;SDS011;5889;51.350;6.708;2023-06-26T03:26:45;9.65;;;7.85;;
11665;SDS011;5889;51.350;6.708;2023-06-26T03:29:12;10.93;;;8.10;;
11665;SDS011;5889;51.350;6.708;2023-06-26T03:31:39;11.38;;;7.70;;
11665;SDS011;5889;51.350;6.708;2023-06-26T03:34:06;14.07;;;7.95;;
11665;SDS011;5889;51.350;6.708;2023-06-26T03:36:33;11.93;;;8.52;;
11665;SDS011;5889;51.350;6.708;2023-06-26T03:39:00;10.88;;;8.43;;
11665;SDS011;5889;51.350;6.708;2023-06-26T03:41:30;11.43;;;8.32;;
11665;SDS011;5889;51.350;6.708;2023-06-26T03:43:57;10.90;;;8.00;;
11665;SDS011;5889;51.350;6.708;2023-06-26T03:46:25;11.40;;;8.13;;
11665;SDS011;5889;51.350;6.708;2023-06-26T03:48:52;11.88;;;8.18;;
11665;SDS011;5889;51.350;6.708;2023-06-26T03:51:19;11.07;;;8.13;;
11665;SDS011;5889;51.350;6.708;2023-06-26T03:53:46;11.70;;;8.05;;
11665;SDS011;5889;51.350;6.708;2023-06-26T03:56:13;11.45;;;8.75;;
11665;SDS011;5889;51.350;6.708;2023-06-26T03:58:41;10.25;;;8.77;;
11665;SDS011;5889;51.350;6.708;2023-06-26T04:01:08;13.15;;;8.52;;
11665;SDS011;5889;51.350;6.708;2023-06-26T04:03:35;12.55;;;8.18;;
11665;SDS011;5889;51.350;6.708;2023-06-26T04:06:02;10.85;;;8.15;;
11665;SDS011;5889;51.350;6.708;2023-06-26T04:08:29;14.35;;;8.50;;
11665;SDS011;5889;51.350;6.708;2023-06-26T04:10:56;10.90;;;8.20;;
11665;SDS011;5889;51.350;6.708;2023-06-26T04:13:23;13.05;;;8.52;;
11665;SDS011;5889;51.350;6.708;2023-06-26T04:15:52;11.30;;;9.02;;
11665;SDS011;5889;51.350;6.708;2023-06-26T04:18:19;10.52;;;8.32;;
11665;SDS011;5889;51.350;6.708;2023-06-26T04:23:32;11.63;;;8.60;;
11665;SDS011;5889;51.350;6.708;2023-06-26T04:25:59;13.60;;;8.35;;
11665;SDS011;5889;51.350;6.708;2023-06-26T04:28:27;12.00;;;8.27;;
11665;SDS011;5889;51.350;6.708;2023-06-26T04:30:56;12.75;;;9.15;;
11665;SDS011;5889;51.350;6.708;2023-06-26T04:33:23;11.43;;;8.07;;
11665;SDS011;5889;51.350;6.708;2023-06-26T04:35:51;8.00;;;7.20;;
11665;SDS011;5889;51.350;6.708;2023-06-26T04:38:18;9.82;;;6.68;;
11665;SDS011;5889;51.350;6.708;2023-06-26T04:40:45;10.70;;;6.75;;
11665;SDS011;5889;51.350;6.708;2023-06-26T04:43:12;8.80;;;6.57;;
11665;SDS011;5889;51.350;6.708;2023-06-26T04:45:39;9.65;;;6.63;;
11665;SDS011;5889;51.350;6.708;2023-06-26T04:48:08;8.20;;;6.22;;
11665;SDS011;5889;51.350;6.708;2023-06-26T04:50:35;11.93;;;7.05;;
11665;SDS011;5889;51.350;6.708;2023-06-26T04:53:02;9.52;;;6.32;;
11665;SDS011;5889;51.350;6.708;2023-06-26T04:55:29;9.25;;;6.75;;
11665;SDS011;5889;51.350;6.708;2023-06-26T04:57:56;10.48;;;6.22;;
11665;SDS011;5889;51.350;6.708;2023-06-26T05:00:23;9.02;;;6.13;;
11665;SDS011;5889;51.350;6.708;2023-06-26T05:02:50;10.48;;;6.43;;
11665;SDS011;5889;51.350;6.708;2023-06-26T05:05:25;11.55;;;5.63;;
11665;SDS011;5889;51.350;6.708;2023-06-26T05:07:53;9.85;;;6.00;;
11665;SDS011;5889;51.350;6.708;2023-06-26T05:10:21;9.68;;;6.57;;
11665;SDS011;5889;51.350;6.708;2023-06-26T05:12:50;7.90;;;5.47;;
11665;SDS011;5889;51.350;6.708;2023-06-26T05:15:17;8.43;;;5.28;;
11665;SDS011;5889;51.350;6.708;2023-06-26T05:17:44;6.78;;;5.10;;
11665;SDS011;5889;51.350;6.708;2023-06-26T05:20:12;8.80;;;5.90;;
11665;SDS011;5889;51.350;6.708;2023-06-26T05:22:41;9.75;;;5.38;;
11665;SDS011;5889;51.350;6.708;2023-06-26T05:25:08;8.80;;;5.25;;
11665;SDS011;5889;51.350;6.708;2023-06-26T05:27:37;12.63;;;5.18;;
11665;SDS011;5889;51.350;6.708;2023-06-26T05:30:04;8.35;;;5.53;;
11665;SDS011;5889;51.350;6.708;2023-06-26T05:32:33;7.40;;;5.07;;
11665;SDS011;5889;51.350;6.708;2023-06-26T05:35:02;9.15;;;5.47;;
11665;SDS011;5889;51.350;6.708;2023-06-26T05:37:29;7.72;;;5.53;;
11665;SDS011;5889;51.350;6.708;2023-06-26T05:40:00;9.55;;;5.10;;
11665;SDS011;5889;51.350;6.708;2023-06-26T05:42:29;8.63;;;4.95;;
11665;SDS011;5889;51.350;6.708;2023-06-26T05:44:58;13.55;;;5.90;;
11665;SDS011;5889;51.350;6.708;2023-06-26T05:47:25;8.98;;;5.15;;
11665;SDS011;5889;51.350;6.708;2023-06-26T05:49:52;12.30;;;5.20;;
11665;SDS011;5889;51.350;6.708;2023-06-26T05:52:20;12.77;;;5.72;;
11665;SDS011;5889;51.350;6.708;2023-06-26T05:54:47;10.70;;;5.57;;
11665;SDS011;5889;51.350;6.708;2023-06-26T05:57:16;14.13;;;5.72;;
11665;SDS011;5889;51.350;6.708;2023-06-26T05:59:44;12.20;;;5.53;;
11665;SDS011;5889;51.350;6.708;2023-06-26T06:02:12;9.68;;;5.50;;
11665;SDS011;5889;51.350;6.708;2023-06-26T06:04:40;10.55;;;5.80;;
11665;SDS011;5889;51.350;6.708;2023-06-26T06:07:07;9.18;;;5.25;;
11665;SDS011;5889;51.350;6.708;2023-06-26T06:09:34;10.43;;;4.88;;
11665;SDS011;5889;51.350;6.708;2023-06-26T06:12:01;12.23;;;5.60;;
11665;SDS011;5889;51.350;6.708;2023-06-26T06:14:30;9.10;;;5.47;;
11665;SDS011;5889;51.350;6.708;2023-06-26T06:16:57;9.13;;;5.80;;
11665;SDS011;5889;51.350;6.708;2023-06-26T06:19:24;12.95;;;6.03;;
11665;SDS011;5889;51.350;6.708;2023-06-26T06:21:51;15.65;;;6.00;;
11665;SDS011;5889;51.350;6.708;2023-06-26T06:24:18;10.85;;;5.55;;
11665;SDS011;5889;51.350;6.708;2023-06-26T06:26:45;12.90;;;5.88;;
11665;SDS011;5889;51.350;6.708;2023-06-26T06:29:12;11.30;;;5.60;;
11665;SDS011;5889;51.350;6.708;2023-06-26T06:31:41;10.27;;;5.47;;
11665;SDS011;5889;51.350;6.708;2023-06-26T06:34:08;9.40;;;5.35;;
11665;SDS011;5889;51.350;6.708;2023-06-26T06:36:34;10.40;;;5.70;;
11665;SDS011;5889;51.350;6.708;2023-06-26T06:39:02;12.20;;;5.88;;
11665;SDS011;5889;51.350;6.708;2023-06-26T06:41:29;10.45;;;5.55;;
11665;SDS011;5889;51.350;6.708;2023-06-26T06:46:30;9.02;;;5.40;;
11665;SDS011;5889;51.350;6.708;2023-06-26T06:48:58;9.00;;;5.43;;
11665;SDS011;5889;51.350;6.708;2023-06-26T06:51:26;10.40;;;5.35;;
11665;SDS011;5889;51.350;6.708;2023-06-26T06:53:53;10.40;;;5.40;;
11665;SDS011;5889;51.350;6.708;2023-06-26T06:56:19;11.05;;;5.90;;
11665;SDS011;5889;51.350;6.708;2023-06-26T06:58:46;11.23;;;5.75;;
11665;SDS011;5889;51.350;6.708;2023-06-26T07:01:13;13.02;;;6.22;;
11665;SDS011;5889;51.350;6.708;2023-06-26T07:03:40;11.45;;;5.68;;
11665;SDS011;5889;51.350;6.708;2023-06-26T07:06:08;10.07;;;5.30;;
11665;SDS011;5889;51.350;6.708;2023-06-26T07:08:35;11.57;;;6.30;;
11665;SDS011;5889;51.350;6.708;2023-06-26T07:11:03;11.00;;;6.03;;
11665;SDS011;5889;51.350;6.708;2023-06-26T07:13:30;10.50;;;5.50;;
11665;SDS011;5889;51.350;6.708;2023-06-26T07:15:57;12.77;;;6.72;;
11665;SDS011;5889;51.350;6.708;2023-06-26T07:18:24;9.52;;;5.13;;
11665;SDS011;5889;51.350;6.708;2023-06-26T07:20:51;12.43;;;6.68;;
11665;SDS011;5889;51.350;6.708;2023-06-26T07:23:19;13.70;;;6.28;;
11665;SDS011;5889;51.350;6.708;2023-06-26T07:25:46;17.98;;;7.15;;
11665;SDS011;5889;51.350;6.708;2023-06-26T07:28:13;12.10;;;6.22;;
11665;SDS011;5889;51.350;6.708;2023-06-26T07:30:40;13.15;;;6.25;;
11665;SDS011;5889;51.350;6.708;2023-06-26T07:33:07;13.95;;;6.43;;
11665;SDS011;5889;51.350;6.708;2023-06-26T07:35:35;12.95;;;6.07;;
11665;SDS011;5889;51.350;6.708;2023-06-26T07:38:01;13.18;;;6.22;;
11665;SDS011;5889;51.350;6.708;2023-06-26T07:40:31;12.20;;;6.35;;
11665;SDS011;5889;51.350;6.708;2023-06-26T07:42:58;15.10;;;6.40;;
11665;SDS011;5889;51.350;6.708;2023-06-26T07:45:25;19.25;;;6.40;;
11665;SDS011;5889;51.350;6.708;2023-06-26T07:47:52;12.88;;;5.65;;
11665;SDS011;5889;51.350;6.708;2023-06-26T07:50:18;14.15;;;6.18;;
11665;SDS011;5889;51.350;6.708;2023-06-26T07:52:47;17.60;;;5.97;;
11665;SDS011;5889;51.350;6.708;2023-06-26T07:55:14;16.25;;;6.07;;
11665;SDS011;5889;51.350;6.708;2023-06-26T07:57:43;11.75;;;5.88;;
11665;SDS011;5889;51.350;6.708;2023-06-26T08:00:11;12.38;;;5.40;;
11665;SDS011;5889;51.350;6.708;2023-06-26T08:02:40;15.23;;;6.50;;
11665;SDS011;5889;51.350;6.708;2023-06-26T08:05:07;11.30;;;6.45;;
11665;SDS011;5889;51.350;6.708;2023-06-26T08:07:34;15.80;;;6.03;;
11665;SDS011;5889;51.350;6.708;2023-06-26T08:10:01;14.00;;;6.32;;
11665;SDS011;5889;51.350;6.708;2023-06-26T08:12:29;11.77;;;6.10;;
11665;SDS011;5889;51.350;6.708;2023-06-26T08:14:57;11.38;;;6.43;;
11665;SDS011;5889;51.350;6.708;2023-06-26T08:17:24;10.68;;;5.43;;
11665;SDS011;5889;51.350;6.708;2023-06-26T08:19:51;12.80;;;5.38;;
11665;SDS011;5889;51.350;6.708;2023-06-26T08:22:18;14.70;;;5.13;;
11665;SDS011;5889;51.350;6.708;2023-06-26T08:24:48;9.20;;;4.30;;
11665;SDS011;5889;51.350;6.708;2023-06-26T08:27:15;13.20;;;4.80;;
11665;SDS011;5889;51.350;6.708;2023-06-26T08:29:42;8.98;;;4.30;;
11665;SDS011;5889;51.350;6.708;2023-06-26T08:32:10;11.10;;;4.20;;
11665;SDS011;5889;51.350;6.708;2023-06-26T08:34:37;12.18;;;4.03;;
11665;SDS011;5889;51.350;6.708;2023-06-26T08:37:04;9.40;;;4.78;;
11665;SDS011;5889;51.350;6.708;2023-06-26T08:39:34;11.57;;;4.85;;
11665;SDS011;5889;51.350;6.708;2023-06-26T08:42:01;15.43;;;4.60;;
11665;SDS011;5889;51.350;6.708;2023-06-26T08:44:28;13.55;;;4.57;;
11665;SDS011;5889;51.350;6.708;2023-06-26T08:46:55;13.05;;;4.25;;
11665;SDS011;5889;51.350;6.708;2023-06-26T08:49:25;10.20;;;4.10;;
11665;SDS011;5889;51.350;6.708;2023-06-26T08:51:59;8.50;;;4.10;;
11665;SDS011;5889;51.350;6.708;2023-06-26T08:54:33;11.48;;;4.18;;
11665;SDS011;5889;51.350;6.708;2023-06-26T08:57:06;10.95;;;4.78;;
11665;SDS011;5889;51.350;6.708;2023-06-26T08:59:33;7.15;;;3.85;;
11665;SDS011;5889;51.350;6.708;2023-06-26T09:02:01;9.82;;;4.20;;
11665;SDS011;5889;51.350;6.708;2023-06-26T09:04:30;10.68;;;4.18;;
11665;SDS011;5889;51.350;6.708;2023-06-26T09:06:57;10.75;;;5.10;;
11665;SDS011;5889;51.350;6.708;2023-06-26T09:09:30;11.13;;;4.50;;
11665;SDS011;5889;51.350;6.708;2023-06-26T09:11:56;11.13;;;3.83;;
11665;SDS011;5889;51.350;6.708;2023-06-26T09:14:24;9.00;;;3.97;;
11665;SDS011;5889;51.350;6.708;2023-06-26T09:16:51;8.55;;;4.30;;
11665;SDS011;5889;51.350;6.708;2023-06-26T09:19:18;11.88;;;4.15;;
11665;SDS011;5889;51.350;6.708;2023-06-26T09:21:48;10.90;;;4.30;;
11665;SDS011;5889;51.350;6.708;2023-06-26T09:24:16;9.32;;;3.90;;
11665;SDS011;5889;51.350;6.708;2023-06-26T09:26:43;8.43;;;3.67;;
11665;SDS011;5889;51.350;6.708;2023-06-26T09:29:10;8.07;;;3.83;;
11665;SDS011;5889;51.350;6.708;2023-06-26T09:31:39;9.25;;;4.32;;
11665;SDS011;5889;51.350;6.708;2023-06-26T09:34:08;11.88;;;3.83;;
11665;SDS011;5889;51.350;6.708;2023-06-26T09:36:35;12.10;;;4.30;;
11665;SDS011;5889;51.350;6.708;2023-06-26T09:39:04;8.23;;;3.35;;
11665;SDS011;5889;51.350;6.708;2023-06-26T09:41:35;6.80;;;3.60;;
11665;SDS011;5889;51.350;6.708;2023-06-26T09:44:04;10.10;;;3.63;;
11665;SDS011;5889;51.350;6.708;2023-06-26T09:46:32;9.88;;;3.30;;
11665;SDS011;5889;51.350;6.708;2023-06-26T09:49:01;9.23;;;3.50;;
11665;SDS011;5889;51.350;6.708;2023-06-26T09:51:30;10.30;;;3.83;;
11665;SDS011;5889;51.350;6.708;2023-06-26T09:53:58;9.88;;;3.40;;
11665;SDS011;5889;51.350;6.708;2023-06-26T09:56:26;9.77;;;3.92;;
11665;SDS011;5889;51.350;6.708;2023-06-26T09:58:55;7.55;;;3.33;;
11665;SDS011;5889;51.350;6.708;2023-06-26T10:01:23;9.65;;;4.00;;
11665;SDS011;5889;51.350;6.708;2023-06-26T10:03:50;7.90;;;3.22;;
11665;SDS011;5889;51.350;6.708;2023-06-26T10:06:18;9.20;;;3.60;;
11665;SDS011;5889;51.350;6.708;2023-06-26T10:08:48;9.23;;;3.30;;
11665;SDS011;5889;51.350;6.708;2023-06-26T10:11:16;6.20;;;3.85;;
11665;SDS011;5889;51.350;6.708;2023-06-26T10:13:49;9.80;;;3.42;;
11665;SDS011;5889;51.350;6.708;2023-06-26T10:16:19;6.25;;;3.83;;
11665;SDS011;5889;51.350;6.708;2023-06-26T10:18:52;7.20;;;3.53;;
11665;SDS011;5889;51.350;6.708;2023-06-26T10:21:22;9.65;;;3.55;;
11665;SDS011;5889;51.350;6.708;2023-06-26T10:23:51;8.10;;;3.47;;
11665;SDS011;5889;51.350;6.708;2023-06-26T10:26:20;5.40;;;2.83;;
11665;SDS011;5889;51.350;6.708;2023-06-26T10:28:49;8.52;;;3.10;;
11665;SDS011;5889;51.350;6.708;2023-06-26T10:31:18;5.35;;;3.00;;
11665;SDS011;5889;51.350;6.708;2023-06-26T10:33:48;5.88;;;2.90;;
11665;SDS011;5889;51.350;6.708;2023-06-26T10:36:16;7.28;;;3.08;;
11665;SDS011;5889;51.350;6.708;2023-06-26T10:38:51;7.60;;;3.08;;
11665;SDS011;5889;51.350;6.708;2023-06-26T10:41:21;7.60;;;2.92;;
11665;SDS011;5889;51.350;6.708;2023-06-26T10:43:50;6.22;;;2.53;;
11665;SDS011;5889;51.350;6.708;2023-06-26T10:46:18;6.78;;;2.60;;
11665;SDS011;5889;51.350;6.708;2023-06-26T10:48:55;6.90;;;2.60;;
11665;SDS011;5889;51.350;6.708;2023-06-26T10:51:23;12.10;;;2.63;;
11665;SDS011;5889;51.350;6.708;2023-06-26T10:53:53;3.60;;;2.10;;
11665;SDS011;5889;51.350;6.708;2023-06-26T10:56:20;4.18;;;2.22;;
11665;SDS011;5889;51.350;6.708;2023-06-26T10:58:47;4.20;;;1.98;;
11665;SDS011;5889;51.350;6.708;2023-06-26T11:01:19;5.10;;;2.08;;
11665;SDS011;5889;51.350;6.708;2023-06-26T11:03:48;7.97;;;2.15;;
11665;SDS011;5889;51.350;6.708;2023-06-26T11:06:27;6.78;;;1.92;;
11665;SDS011;5889;51.350;6.708;2023-06-26T11:08:59;4.10;;;1.80;;
11665;SDS011;5889;51.350;6.708;2023-06-26T11:14:31;4.35;;;2.00;;
11665;SDS011;5889;51.350;6.708;2023-06-26T11:17:01;5.55;;;1.88;;
11665;SDS011;5889;51.350;6.708;2023-06-26T11:19:29;2.83;;;1.70;;
11665;SDS011;5889;51.350;6.708;2023-06-26T11:22:01;4.80;;;1.77;;
11665;SDS011;5889;51.350;6.708;2023-06-26T11:24:29;3.53;;;2.00;;
11665;SDS011;5889;51.350;6.708;2023-06-26T11:26:59;5.97;;;1.75;;
11665;SDS011;5889;51.350;6.708;2023-06-26T11:29:28;4.05;;;1.70;;
11665;SDS011;5889;51.350;6.708;2023-06-26T11:32:01;3.42;;;1.85;;
11665;SDS011;5889;51.350;6.708;2023-06-26T11:34:31;2.90;;;1.67;;
11665;SDS011;5889;51.350;6.708;2023-06-26T11:36:58;2.85;;;1.30;;
11665;SDS011;5889;51.350;6.708;2023-06-26T11:39:28;3.15;;;1.58;;
11665;SDS011;5889;51.350;6.708;2023-06-26T11:41:55;9.10;;;2.10;;
11665;SDS011;5889;51.350;6.708;2023-06-26T11:44:22;4.30;;;1.75;;
11665;SDS011;5889;51.350;6.708;2023-06-26T11:46:52;3.95;;;1.40;;
11665;SDS011;5889;51.350;6.708;2023-06-26T11:49:22;3.35;;;1.55;;
11665;SDS011;5889;51.350;6.708;2023-06-26T11:51:51;7.18;;;2.20;;
11665;SDS011;5889;51.350;6.708;2023-06-26T11:54:24;5.57;;;1.60;;
11665;SDS011;5889;51.350;6.708;2023-06-26T11:56:53;3.35;;;1.50;;
11665;SDS011;5889;51.350;6.708;2023-06-26T11:59:22;4.00;;;1.35;;
11665;SDS011;5889;51.350;6.708;2023-06-26T12:01:50;7.20;;;1.63;;
11665;SDS011;5889;51.350;6.708;2023-06-26T12:04:18;3.72;;;1.10;;
11665;SDS011;5889;51.350;6.708;2023-06-26T12:06:47;3.22;;;1.50;;
11665;SDS011;5889;51.350;6.708;2023-06-26T12:09:17;4.15;;;1.30;;
11665;SDS011;5889;51.350;6.708;2023-06-26T12:11:46;4.35;;;1.17;;
11665;SDS011;5889;51.350;6.708;2023-06-26T12:14:15;5.57;;;1.40;;
11665;SDS011;5889;51.350;6.708;2023-06-26T12:16:43;4.00;;;1.50;;
11665;SDS011;5889;51.350;6.708;2023-06-26T12:19:10;4.00;;;1.50;;
11665;SDS011;5889;51.350;6.708;2023-06-26T12:21:45;4.72;;;1.10;;
11665;SDS011;5889;51.350;6.708;2023-06-26T12:24:17;4.10;;;1.67;;
11665;SDS011;5889;51.350;6.708;2023-06-26T12:26:46;4.30;;;1.30;;
11665;SDS011;5889;51.350;6.708;2023-06-26T12:29:16;4.70;;;1.05;;
11665;SDS011;5889;51.350;6.708;2023-06-26T12:31:45;2.50;;;1.45;;
11665;SDS011;5889;51.350;6.708;2023-06-26T12:34:19;2.42;;;1.08;;
11665;SDS011;5889;51.350;6.708;2023-06-26T12:36:49;4.60;;;1.50;;
11665;SDS011;5889;51.350;6.708;2023-06-26T12:39:17;4.47;;;1.38;;
11665;SDS011;5889;51.350;6.708;2023-06-26T12:41:49;2.35;;;1.10;;
11665;SDS011;5889;51.350;6.708;2023-06-26T12:44:19;5.43;;;1.38;;
11665;SDS011;5889;51.350;6.708;2023-06-26T12:46:47;3.13;;;1.23;;
11665;SDS011;5889;51.350;6.708;2023-06-26T12:49:15;4.35;;;1.20;;
11665;SDS011;5889;51.350;6.708;2023-06-26T12:51:43;3.10;;;1.00;;
11665;SDS011;5889;51.350;6.708;2023-06-26T12:54:11;6.03;;;1.30;;
11665;SDS011;5889;51.350;6.708;2023-06-26T12:56:38;6.55;;;1.42;;
11665;SDS011;5889;51.350;6.708;2023-06-26T12:59:05;4.15;;;1.15;;
11665;SDS011;5889;51.350;6.708;2023-06-26T13:01:34;2.58;;;1.40;;
11665;SDS011;5889;51.350;6.708;2023-06-26T13:04:01;2.88;;;1.20;;
11665;SDS011;5889;51.350;6.708;2023-06-26T13:06:29;2.53;;;1.17;;
11665;SDS011;5889;51.350;6.708;2023-06-26T13:08:56;6.55;;;1.40;;
11665;SDS011;5889;51.350;6.708;2023-06-26T13:11:25;2.95;;;1.08;;
11665;SDS011;5889;51.350;6.708;2023-06-26T13:13:52;4.82;;;1.52;;
11665;SDS011;5889;51.350;6.708;2023-06-26T13:16:19;7.22;;;1.50;;
11665;SDS011;5889;51.350;6.708;2023-06-26T13:18:46;5.57;;;1.40;;
11665;SDS011;5889;51.350;6.708;2023-06-26T13:21:13;6.40;;;1.60;;
11665;SDS011;5889;51.350;6.708;2023-06-26T13:23:41;4.28;;;1.27;;
11665;SDS011;5889;51.350;6.708;2023-06-26T13:26:08;5.28;;;1.38;;
11665;SDS011;5889;51.350;6.708;2023-06-26T13:28:37;3.42;;;1.63;;
11665;SDS011;5889;51.350;6.708;2023-06-26T13:31:04;5.85;;;1.73;;
11665;SDS011;5889;51.350;6.708;2023-06-26T13:33:31;3.05;;;1.70;;
11665;SDS011;5889;51.350;6.708;2023-06-26T13:36:04;2.30;;;1.33;;
11665;SDS011;5889;51.350;6.708;2023-06-26T13:38:32;3.17;;;1.40;;
11665;SDS011;5889;51.350;6.708;2023-06-26T13:41:00;5.63;;;1.50;;
11665;SDS011;5889;51.350;6.708;2023-06-26T13:43:27;6.10;;;1.52;;
11665;SDS011;5889;51.350;6.708;2023-06-26T13:45:57;2.38;;;1.20;;
11665;SDS011;5889;51.350;6.708;2023-06-26T13:48:24;4.68;;;1.60;;
11665;SDS011;5889;51.350;6.708;2023-06-26T13:50:51;5.43;;;1.35;;
11665;SDS011;5889;51.350;6.708;2023-06-26T13:53:19;5.35;;;1.40;;
11665;SDS011;5889;51.350;6.708;2023-06-26T13:55:46;3.50;;;1.48;;
11665;SDS011;5889;51.350;6.708;2023-06-26T13:58:13;11.65;;;1.60;;
11665;SDS011;5889;51.350;6.708;2023-06-26T14:00:40;4.32;;;1.25;;
11665;SDS011;5889;51.350;6.708;2023-06-26T14:03:10;4.25;;;1.42;;
11665;SDS011;5889;51.350;6.708;2023-06-26T14:05:37;3.40;;;1.45;;
11665;SDS011;5889;51.350;6.708;2023-06-26T14:08:05;3.40;;;1.30;;
11665;SDS011;5889;51.350;6.708;2023-06-26T14:10:33;3.63;;;1.50;;
11665;SDS011;5889;51.350;6.708;2023-06-26T14:13:01;3.97;;;1.30;;
11665;SDS011;5889;51.350;6.708;2023-06-26T14:15:29;4.82;;;1.48;;
11665;SDS011;5889;51.350;6.708;2023-06-26T14:17:56;4.63;;;1.35;;
11665;SDS011;5889;51.350;6.708;2023-06-26T14:20:25;3.40;;;1.15;;
11665;SDS011;5889;51.350;6.708;2023-06-26T14:22:52;6.53;;;1.40;;
11665;SDS011;5889;51.350;6.708;2023-06-26T14:25:19;3.22;;;1.30;;
11665;SDS011;5889;51.350;6.708;2023-06-26T14:27:46;4.80;;;1.42;;
11665;SDS011;5889;51.350;6.708;2023-06-26T14:30:13;4.78;;;1.30;;
11665;SDS011;5889;51.350;6.708;2023-06-26T14:32:40;2.53;;;1.42;;
11665;SDS011;5889;51.350;6.708;2023-06-26T14:35:07;2.25;;;1.10;;
11665;SDS011;5889;51.350;6.708;2023-06-26T14:37:36;4.00;;;1.75;;
11665;SDS011;5889;51.350;6.708;2023-06-26T14:40:04;5.00;;;1.40;;
11665;SDS011;5889;51.350;6.708;2023-06-26T14:42:32;2.72;;;1.27;;
11665;SDS011;5889;51.350;6.708;2023-06-26T14:44:59;5.60;;;1.50;;
11665;SDS011;5889;51.350;6.708;2023-06-26T14:47:27;1.48;;;1.20;;
11665;SDS011;5889;51.350;6.708;2023-06-26T14:49:54;3.83;;;1.50;;
11665;SDS011;5889;51.350;6.708;2023-06-26T14:52:23;3.15;;;1.27;;
11665;SDS011;5889;51.350;6.708;2023-06-26T14:54:51;1.40;;;1.15;;
11665;SDS011;5889;51.350;6.708;2023-06-26T14:57:18;2.60;;;1.40;;
11665;SDS011;5889;51.350;6.708;2023-06-26T14:59:45;4.30;;;1.27;;
11665;SDS011;5889;51.350;6.708;2023-06-26T15:02:12;2.75;;;1.10;;
11665;SDS011;5889;51.350;6.708;2023-06-26T15:04:39;6.05;;;1.50;;
11665;SDS011;5889;51.350;6.708;2023-06-26T15:07:06;3.28;;;1.52;;
11665;SDS011;5889;51.350;6.708;2023-06-26T15:09:32;3.58;;;1.15;;